sensor_id;sensor_type;location;lat;lon;timestamp;temperature;humidity
9486;DHT22;4781;48.776;9.200;2023-03-08T00:01:31;4.10;94.20
9486;DHT22;4781;48.776;9.200;2023-03-08T00:04:00;4.10;94.20
9486;DHT22;4781;48.776;9.200;2023-03-08T00:06:28;4.10;94.30
9486;DHT22;4781;48.776;9.200;2023-03-08T00:08:58;4.10;94.40
9486;DHT22;4781;48.776;9.200;2023-03-08T00:11:28;4.20;94.40
9486;DHT22;4781;48.776;9.200;2023-03-08T00:13:57;4.20;94.40
9486;DHT22;4781;48.776;9.200;2023-03-08T00:16:27;4.20;94.40
9486;DHT22;4781;48.776;9.200;2023-03-08T00:18:55;4.20;94.40
9486;DHT22;4781;48.776;9.200;2023-03-08T00:21:24;4.30;94.50
9486;DHT22;4781;48.776;9.200;2023-03-08T00:23:53;4.30;94.50
9486;DHT22;4781;48.776;9.200;2023-03-08T00:26:21;4.30;94.60
9486;DHT22;4781;48.776;9.200;2023-03-08T00:28:50;4.30;94.70
9486;DHT22;4781;48.776;9.200;2023-03-08T00:31:18;4.30;94.70
9486;DHT22;4781;48.776;9.200;2023-03-08T00:33:47;4.30;94.80
9486;DHT22;4781;48.776;9.200;2023-03-08T00:36:18;4.30;94.80
9486;DHT22;4781;48.776;9.200;2023-03-08T00:38:47;4.30;94.80
9486;DHT22;4781;48.776;9.200;2023-03-08T00:41:17;4.30;94.80
9486;DHT22;4781;48.776;9.200;2023-03-08T00:43:45;4.30;94.80
9486;DHT22;4781;48.776;9.200;2023-03-08T00:46:14;4.30;94.90
9486;DHT22;4781;48.776;9.200;2023-03-08T00:48:42;4.30;94.90
9486;DHT22;4781;48.776;9.200;2023-03-08T00:51:13;4.20;94.90
9486;DHT22;4781;48.776;9.200;2023-03-08T00:53:42;4.30;95.00
9486;DHT22;4781;48.776;9.200;2023-03-08T00:56:11;4.20;95.00
9486;DHT22;4781;48.776;9.200;2023-03-08T00:58:40;4.20;95.10
9486;DHT22;4781;48.776;9.200;2023-03-08T01:01:14;4.30;95.10
9486;DHT22;4781;48.776;9.200;2023-03-08T01:03:43;4.20;95.10
9486;DHT22;4781;48.776;9.200;2023-03-08T01:06:14;4.30;95.10
9486;DHT22;4781;48.776;9.200;2023-03-08T01:08:43;4.30;95.10
9486;DHT22;4781;48.776;9.200;2023-03-08T01:11:19;4.20;95.20
9486;DHT22;4781;48.776;9.200;2023-03-08T01:13:51;4.20;95.20
9486;DHT22;4781;48.776;9.200;2023-03-08T01:16:22;4.20;95.20
9486;DHT22;4781;48.776;9.200;2023-03-08T01:18:55;4.10;95.40
9486;DHT22;4781;48.776;9.200;2023-03-08T01:21:25;4.10;95.50
9486;DHT22;4781;48.776;9.200;2023-03-08T01:23:55;4.10;95.60
9486;DHT22;4781;48.776;9.200;2023-03-08T01:26:25;4.00;95.80
9486;DHT22;4781;48.776;9.200;2023-03-08T01:28:54;4.10;95.80
9486;DHT22;4781;48.776;9.200;2023-03-08T01:31:25;3.90;95.90
9486;DHT22;4781;48.776;9.200;2023-03-08T01:33:55;3.90;96.10
9486;DHT22;4781;48.776;9.200;2023-03-08T01:36:25;3.80;96.20
9486;DHT22;4781;48.776;9.200;2023-03-08T01:38:55;3.70;96.30
9486;DHT22;4781;48.776;9.200;2023-03-08T01:41:26;3.70;96.50
9486;DHT22;4781;48.776;9.200;2023-03-08T01:43:56;3.70;96.60
9486;DHT22;4781;48.776;9.200;2023-03-08T01:46:29;3.60;96.70
9486;DHT22;4781;48.776;9.200;2023-03-08T01:51:55;3.60;96.90
9486;DHT22;4781;48.776;9.200;2023-03-08T01:54:46;3.50;97.00
9486;DHT22;4781;48.776;9.200;2023-03-08T01:57:39;3.50;97.10
9486;DHT22;4781;48.776;9.200;2023-03-08T02:00:13;3.40;97.20
9486;DHT22;4781;48.776;9.200;2023-03-08T02:03:01;3.40;97.30
9486;DHT22;4781;48.776;9.200;2023-03-08T02:05:35;3.30;97.40
9486;DHT22;4781;48.776;9.200;2023-03-08T02:08:05;3.30;97.60
9486;DHT22;4781;48.776;9.200;2023-03-08T02:10:34;3.30;97.80
9486;DHT22;4781;48.776;9.200;2023-03-08T02:13:05;3.30;97.70
9486;DHT22;4781;48.776;9.200;2023-03-08T02:15:34;3.20;97.70
9486;DHT22;4781;48.776;9.200;2023-03-08T02:18:02;3.20;97.80
9486;DHT22;4781;48.776;9.200;2023-03-08T02:20:33;3.20;97.90
9486;DHT22;4781;48.776;9.200;2023-03-08T02:23:11;3.20;97.90
9486;DHT22;4781;48.776;9.200;2023-03-08T02:25:48;3.20;97.90
9486;DHT22;4781;48.776;9.200;2023-03-08T02:28:22;3.20;98.00
9486;DHT22;4781;48.776;9.200;2023-03-08T02:30:53;3.20;98.00
9486;DHT22;4781;48.776;9.200;2023-03-08T02:33:22;3.20;98.00
9486;DHT22;4781;48.776;9.200;2023-03-08T02:35:51;3.20;98.10
9486;DHT22;4781;48.776;9.200;2023-03-08T02:38:20;3.20;98.10
9486;DHT22;4781;48.776;9.200;2023-03-08T02:40:49;3.20;98.20
9486;DHT22;4781;48.776;9.200;2023-03-08T02:43:19;3.20;98.20
9486;DHT22;4781;48.776;9.200;2023-03-08T02:45:47;3.20;98.10
9486;DHT22;4781;48.776;9.200;2023-03-08T02:48:16;3.20;98.00
9486;DHT22;4781;48.776;9.200;2023-03-08T02:50:45;3.20;98.00
9486;DHT22;4781;48.776;9.200;2023-03-08T02:53:13;3.30;98.10
9486;DHT22;4781;48.776;9.200;2023-03-08T02:55:41;3.30;98.00
9486;DHT22;4781;48.776;9.200;2023-03-08T02:58:10;3.30;98.00
9486;DHT22;4781;48.776;9.200;2023-03-08T03:00:38;3.30;98.00
9486;DHT22;4781;48.776;9.200;2023-03-08T03:03:07;3.30;97.90
9486;DHT22;4781;48.776;9.200;2023-03-08T03:05:40;3.30;98.00
9486;DHT22;4781;48.776;9.200;2023-03-08T03:08:10;3.30;98.00
9486;DHT22;4781;48.776;9.200;2023-03-08T03:10:39;3.30;98.00
9486;DHT22;4781;48.776;9.200;2023-03-08T03:13:07;3.30;97.90
9486;DHT22;4781;48.776;9.200;2023-03-08T03:15:37;3.30;97.90
9486;DHT22;4781;48.776;9.200;2023-03-08T03:18:06;3.30;97.90
9486;DHT22;4781;48.776;9.200;2023-03-08T03:20:34;3.30;97.90
9486;DHT22;4781;48.776;9.200;2023-03-08T03:23:03;3.30;97.90
9486;DHT22;4781;48.776;9.200;2023-03-08T03:25:35;3.40;98.00
9486;DHT22;4781;48.776;9.200;2023-03-08T03:28:04;3.40;98.00
9486;DHT22;4781;48.776;9.200;2023-03-08T03:30:32;3.40;97.90
9486;DHT22;4781;48.776;9.200;2023-03-08T03:33:00;3.40;97.90
9486;DHT22;4781;48.776;9.200;2023-03-08T03:35:29;3.40;97.90
9486;DHT22;4781;48.776;9.200;2023-03-08T03:38:04;3.40;97.90
9486;DHT22;4781;48.776;9.200;2023-03-08T03:40:32;3.40;97.90
9486;DHT22;4781;48.776;9.200;2023-03-08T03:43:00;3.40;97.90
9486;DHT22;4781;48.776;9.200;2023-03-08T03:45:29;3.40;97.80
9486;DHT22;4781;48.776;9.200;2023-03-08T03:47:57;3.40;97.80
9486;DHT22;4781;48.776;9.200;2023-03-08T03:50:25;3.40;97.80
9486;DHT22;4781;48.776;9.200;2023-03-08T03:52:54;3.40;97.70
9486;DHT22;4781;48.776;9.200;2023-03-08T03:55:22;3.50;97.70
9486;DHT22;4781;48.776;9.200;2023-03-08T03:57:50;3.50;97.70
9486;DHT22;4781;48.776;9.200;2023-03-08T04:00:19;3.50;97.60
9486;DHT22;4781;48.776;9.200;2023-03-08T04:02:48;3.50;97.60
9486;DHT22;4781;48.776;9.200;2023-03-08T04:05:16;3.50;97.60
9486;DHT22;4781;48.776;9.200;2023-03-08T04:07:44;3.70;97.50
9486;DHT22;4781;48.776;9.200;2023-03-08T04:10:13;3.40;97.60
9486;DHT22;4781;48.776;9.200;2023-03-08T04:12:41;3.50;97.60
9486;DHT22;4781;48.776;9.200;2023-03-08T04:15:10;3.50;97.70
9486;DHT22;4781;48.776;9.200;2023-03-08T04:17:38;3.50;97.70
9486;DHT22;4781;48.776;9.200;2023-03-08T04:20:07;3.50;97.70
9486;DHT22;4781;48.776;9.200;2023-03-08T04:22:36;3.50;97.70
9486;DHT22;4781;48.776;9.200;2023-03-08T04:25:05;3.50;97.70
9486;DHT22;4781;48.776;9.200;2023-03-08T04:27:33;3.50;97.70
9486;DHT22;4781;48.776;9.200;2023-03-08T04:30:02;3.50;97.70
9486;DHT22;4781;48.776;9.200;2023-03-08T04:32:31;3.50;97.80
9486;DHT22;4781;48.776;9.200;2023-03-08T04:35:00;3.50;97.90
9486;DHT22;4781;48.776;9.200;2023-03-08T04:37:28;3.50;97.80
9486;DHT22;4781;48.776;9.200;2023-03-08T04:39:58;3.50;97.90
9486;DHT22;4781;48.776;9.200;2023-03-08T04:42:26;3.50;97.80
9486;DHT22;4781;48.776;9.200;2023-03-08T04:44:54;3.60;97.80
9486;DHT22;4781;48.776;9.200;2023-03-08T04:47:23;3.60;97.80
9486;DHT22;4781;48.776;9.200;2023-03-08T04:49:51;3.60;97.90
9486;DHT22;4781;48.776;9.200;2023-03-08T04:52:19;3.60;97.90
9486;DHT22;4781;48.776;9.200;2023-03-08T04:54:48;3.60;97.90
9486;DHT22;4781;48.776;9.200;2023-03-08T04:57:16;3.60;97.80
9486;DHT22;4781;48.776;9.200;2023-03-08T04:59:45;3.60;97.90
9486;DHT22;4781;48.776;9.200;2023-03-08T05:02:13;3.60;97.90
9486;DHT22;4781;48.776;9.200;2023-03-08T05:04:42;3.60;97.90
9486;DHT22;4781;48.776;9.200;2023-03-08T05:07:10;3.60;98.00
9486;DHT22;4781;48.776;9.200;2023-03-08T05:09:38;3.60;98.00
9486;DHT22;4781;48.776;9.200;2023-03-08T05:12:07;3.70;98.20
9486;DHT22;4781;48.776;9.200;2023-03-08T05:14:35;3.70;98.20
9486;DHT22;4781;48.776;9.200;2023-03-08T05:17:04;3.70;98.20
9486;DHT22;4781;48.776;9.200;2023-03-08T05:19:32;3.70;98.30
9486;DHT22;4781;48.776;9.200;2023-03-08T05:22:01;3.70;98.30
9486;DHT22;4781;48.776;9.200;2023-03-08T05:24:31;3.70;98.30
9486;DHT22;4781;48.776;9.200;2023-03-08T05:26:59;4.20;98.50
9486;DHT22;4781;48.776;9.200;2023-03-08T05:29:28;3.70;98.20
9486;DHT22;4781;48.776;9.200;2023-03-08T05:31:56;3.80;98.30
9486;DHT22;4781;48.776;9.200;2023-03-08T05:34:26;3.80;98.30
9486;DHT22;4781;48.776;9.200;2023-03-08T05:36:55;3.80;98.20
9486;DHT22;4781;48.776;9.200;2023-03-08T05:39:25;3.90;98.30
9486;DHT22;4781;48.776;9.200;2023-03-08T05:41:55;3.90;98.20
9486;DHT22;4781;48.776;9.200;2023-03-08T05:44:24;3.90;98.30
9486;DHT22;4781;48.776;9.200;2023-03-08T05:46:53;3.90;98.10
9486;DHT22;4781;48.776;9.200;2023-03-08T05:49:21;3.90;98.10
9486;DHT22;4781;48.776;9.200;2023-03-08T05:51:50;4.00;98.20
9486;DHT22;4781;48.776;9.200;2023-03-08T05:54:19;4.00;98.20
9486;DHT22;4781;48.776;9.200;2023-03-08T05:56:47;4.00;98.30
9486;DHT22;4781;48.776;9.200;2023-03-08T05:59:16;4.00;98.40
9486;DHT22;4781;48.776;9.200;2023-03-08T06:01:44;4.00;98.40
9486;DHT22;4781;48.776;9.200;2023-03-08T06:04:13;4.10;98.50
9486;DHT22;4781;48.776;9.200;2023-03-08T06:06:41;4.10;98.60
9486;DHT22;4781;48.776;9.200;2023-03-08T06:09:10;4.10;98.80
9486;DHT22;4781;48.776;9.200;2023-03-08T06:11:38;4.10;98.90
9486;DHT22;4781;48.776;9.200;2023-03-08T06:14:06;4.20;99.00
9486;DHT22;4781;48.776;9.200;2023-03-08T06:16:36;4.20;99.10
9486;DHT22;4781;48.776;9.200;2023-03-08T06:19:04;4.20;99.20
9486;DHT22;4781;48.776;9.200;2023-03-08T06:21:33;4.20;99.20
9486;DHT22;4781;48.776;9.200;2023-03-08T06:24:01;4.20;99.20
9486;DHT22;4781;48.776;9.200;2023-03-08T06:26:30;4.30;99.40
9486;DHT22;4781;48.776;9.200;2023-03-08T06:28:58;4.30;99.40
9486;DHT22;4781;48.776;9.200;2023-03-08T06:31:26;4.20;99.40
9486;DHT22;4781;48.776;9.200;2023-03-08T06:33:55;4.30;99.50
9486;DHT22;4781;48.776;9.200;2023-03-08T06:36:23;4.30;99.60
9486;DHT22;4781;48.776;9.200;2023-03-08T06:38:52;4.30;99.60
9486;DHT22;4781;48.776;9.200;2023-03-08T06:41:20;4.30;99.60
9486;DHT22;4781;48.776;9.200;2023-03-08T06:43:52;4.30;99.60
9486;DHT22;4781;48.776;9.200;2023-03-08T06:46:21;4.30;99.70
9486;DHT22;4781;48.776;9.200;2023-03-08T06:48:49;4.30;99.60
9486;DHT22;4781;48.776;9.200;2023-03-08T06:51:19;4.30;99.70
9486;DHT22;4781;48.776;9.200;2023-03-08T06:53:48;4.30;99.70
9486;DHT22;4781;48.776;9.200;2023-03-08T06:56:17;4.40;99.70
9486;DHT22;4781;48.776;9.200;2023-03-08T06:58:45;4.40;99.80
9486;DHT22;4781;48.776;9.200;2023-03-08T07:01:14;4.40;99.70
9486;DHT22;4781;48.776;9.200;2023-03-08T07:03:42;4.40;99.70
9486;DHT22;4781;48.776;9.200;2023-03-08T07:06:12;4.40;99.40
9486;DHT22;4781;48.776;9.200;2023-03-08T07:08:40;4.40;99.80
9486;DHT22;4781;48.776;9.200;2023-03-08T07:11:09;4.50;99.70
9486;DHT22;4781;48.776;9.200;2023-03-08T07:13:38;4.50;99.40
9486;DHT22;4781;48.776;9.200;2023-03-08T07:16:11;4.50;99.40
9486;DHT22;4781;48.776;9.200;2023-03-08T07:18:41;4.50;99.40
9486;DHT22;4781;48.776;9.200;2023-03-08T07:21:11;4.50;99.40
9486;DHT22;4781;48.776;9.200;2023-03-08T07:23:39;4.50;99.40
9486;DHT22;4781;48.776;9.200;2023-03-08T07:26:09;4.50;99.40
9486;DHT22;4781;48.776;9.200;2023-03-08T07:28:38;4.50;99.60
9486;DHT22;4781;48.776;9.200;2023-03-08T07:31:09;4.50;99.40
9486;DHT22;4781;48.776;9.200;2023-03-08T07:33:38;4.50;99.60
9486;DHT22;4781;48.776;9.200;2023-03-08T07:36:07;4.60;99.70
9486;DHT22;4781;48.776;9.200;2023-03-08T07:38:35;4.70;99.80
9486;DHT22;4781;48.776;9.200;2023-03-08T07:41:04;4.60;99.40
9486;DHT22;4781;48.776;9.200;2023-03-08T07:43:32;4.60;99.60
9486;DHT22;4781;48.776;9.200;2023-03-08T07:46:02;4.60;99.60
9486;DHT22;4781;48.776;9.200;2023-03-08T07:48:31;4.70;99.80
9486;DHT22;4781;48.776;9.200;2023-03-08T07:51:05;4.70;99.80
9486;DHT22;4781;48.776;9.200;2023-03-08T07:53:36;4.70;99.70
9486;DHT22;4781;48.776;9.200;2023-03-08T07:56:05;4.70;99.90
9486;DHT22;4781;48.776;9.200;2023-03-08T07:58:34;4.70;99.90
9486;DHT22;4781;48.776;9.200;2023-03-08T08:01:07;4.80;99.90
9486;DHT22;4781;48.776;9.200;2023-03-08T08:03:37;4.80;99.90
9486;DHT22;4781;48.776;9.200;2023-03-08T08:06:06;4.80;99.90
9486;DHT22;4781;48.776;9.200;2023-03-08T08:08:35;4.90;99.90
9486;DHT22;4781;48.776;9.200;2023-03-08T08:11:11;4.90;99.90
9486;DHT22;4781;48.776;9.200;2023-03-08T08:13:41;4.90;99.90
9486;DHT22;4781;48.776;9.200;2023-03-08T08:16:09;4.90;99.90
9486;DHT22;4781;48.776;9.200;2023-03-08T08:18:37;5.00;99.90
9486;DHT22;4781;48.776;9.200;2023-03-08T08:21:09;5.10;99.90
9486;DHT22;4781;48.776;9.200;2023-03-08T08:23:40;5.10;99.90
9486;DHT22;4781;48.776;9.200;2023-03-08T08:26:12;5.10;99.90
9486;DHT22;4781;48.776;9.200;2023-03-08T08:28:43;5.10;99.90
9486;DHT22;4781;48.776;9.200;2023-03-08T08:31:15;4.70;99.90
9486;DHT22;4781;48.776;9.200;2023-03-08T08:33:46;5.20;99.90
9486;DHT22;4781;48.776;9.200;2023-03-08T08:36:16;5.20;99.90
9486;DHT22;4781;48.776;9.200;2023-03-08T08:38:45;5.10;99.90
9486;DHT22;4781;48.776;9.200;2023-03-08T08:41:16;5.10;99.90
9486;DHT22;4781;48.776;9.200;2023-03-08T08:43:46;5.20;99.90
9486;DHT22;4781;48.776;9.200;2023-03-08T08:46:16;5.30;99.90
9486;DHT22;4781;48.776;9.200;2023-03-08T08:48:45;5.30;99.90
9486;DHT22;4781;48.776;9.200;2023-03-08T08:51:14;5.30;99.90
9486;DHT22;4781;48.776;9.200;2023-03-08T08:53:42;5.30;99.90
9486;DHT22;4781;48.776;9.200;2023-03-08T08:56:12;5.20;99.90
9486;DHT22;4781;48.776;9.200;2023-03-08T08:58:43;5.20;99.90
9486;DHT22;4781;48.776;9.200;2023-03-08T09:01:15;5.20;99.90
9486;DHT22;4781;48.776;9.200;2023-03-08T09:03:46;5.20;99.90
9486;DHT22;4781;48.776;9.200;2023-03-08T09:06:17;5.20;99.90
9486;DHT22;4781;48.776;9.200;2023-03-08T09:08:54;5.20;99.90
9486;DHT22;4781;48.776;9.200;2023-03-08T09:11:24;5.30;99.90
9486;DHT22;4781;48.776;9.200;2023-03-08T09:13:54;5.30;99.90
9486;DHT22;4781;48.776;9.200;2023-03-08T09:16:25;5.30;99.90
9486;DHT22;4781;48.776;9.200;2023-03-08T09:18:59;5.30;99.90
9486;DHT22;4781;48.776;9.200;2023-03-08T09:21:29;5.30;99.90
9486;DHT22;4781;48.776;9.200;2023-03-08T09:24:03;5.20;99.90
9486;DHT22;4781;48.776;9.200;2023-03-08T09:26:34;5.30;99.90
9486;DHT22;4781;48.776;9.200;2023-03-08T09:29:03;5.30;99.90
9486;DHT22;4781;48.776;9.200;2023-03-08T09:31:35;5.30;99.90
9486;DHT22;4781;48.776;9.200;2023-03-08T09:34:04;5.30;99.90
9486;DHT22;4781;48.776;9.200;2023-03-08T09:36:35;5.30;99.90
9486;DHT22;4781;48.776;9.200;2023-03-08T09:39:07;5.40;99.90
9486;DHT22;4781;48.776;9.200;2023-03-08T09:55:32;5.50;99.90
9486;DHT22;4781;48.776;9.200;2023-03-08T09:58:02;5.60;99.90
9486;DHT22;4781;48.776;9.200;2023-03-08T10:00:44;5.90;99.90
9486;DHT22;4781;48.776;9.200;2023-03-08T10:03:45;5.70;99.90
9486;DHT22;4781;48.776;9.200;2023-03-08T10:06:09;5.70;99.90
9486;DHT22;4781;48.776;9.200;2023-03-08T10:09:04;5.90;99.90
9486;DHT22;4781;48.776;9.200;2023-03-08T10:11:52;6.00;99.90
9486;DHT22;4781;48.776;9.200;2023-03-08T10:14:26;6.10;99.90
9486;DHT22;4781;48.776;9.200;2023-03-08T10:17:14;6.30;99.90
9486;DHT22;4781;48.776;9.200;2023-03-08T10:19:47;6.40;99.90
9486;DHT22;4781;48.776;9.200;2023-03-08T10:22:29;6.60;99.90
9486;DHT22;4781;48.776;9.200;2023-03-08T10:25:23;6.80;99.90
9486;DHT22;4781;48.776;9.200;2023-03-08T10:28:01;6.90;99.90
9486;DHT22;4781;48.776;9.200;2023-03-08T10:30:36;7.20;99.90
9486;DHT22;4781;48.776;9.200;2023-03-08T10:33:09;7.30;99.90
9486;DHT22;4781;48.776;9.200;2023-03-08T10:35:56;7.40;99.90
9486;DHT22;4781;48.776;9.200;2023-03-08T10:38:37;7.60;99.90
9486;DHT22;4781;48.776;9.200;2023-03-08T10:41:14;7.70;99.90
9486;DHT22;4781;48.776;9.200;2023-03-08T10:43:54;7.90;99.90
9486;DHT22;4781;48.776;9.200;2023-03-08T10:46:25;8.10;99.90
9486;DHT22;4781;48.776;9.200;2023-03-08T10:49:17;8.30;99.90
9486;DHT22;4781;48.776;9.200;2023-03-08T10:54:25;8.70;99.90
9486;DHT22;4781;48.776;9.200;2023-03-08T10:56:59;9.00;99.90
9486;DHT22;4781;48.776;9.200;2023-03-08T10:59:34;9.30;99.90
9486;DHT22;4781;48.776;9.200;2023-03-08T11:02:15;9.60;99.90
9486;DHT22;4781;48.776;9.200;2023-03-08T11:04:57;9.80;99.90
9486;DHT22;4781;48.776;9.200;2023-03-08T11:07:32;10.00;99.90
9486;DHT22;4781;48.776;9.200;2023-03-08T11:10:15;10.20;99.90
9486;DHT22;4781;48.776;9.200;2023-03-08T11:12:45;10.30;99.90
9486;DHT22;4781;48.776;9.200;2023-03-08T11:15:18;10.30;99.90
9486;DHT22;4781;48.776;9.200;2023-03-08T11:17:54;10.40;99.90
9486;DHT22;4781;48.776;9.200;2023-03-08T11:20:35;10.50;99.90
9486;DHT22;4781;48.776;9.200;2023-03-08T11:23:26;10.60;99.90
9486;DHT22;4781;48.776;9.200;2023-03-08T11:26:16;10.70;99.90
9486;DHT22;4781;48.776;9.200;2023-03-08T11:29:04;10.60;99.90
9486;DHT22;4781;48.776;9.200;2023-03-08T11:38:19;10.70;99.90
9486;DHT22;4781;48.776;9.200;2023-03-08T11:46:49;10.90;99.90
9486;DHT22;4781;48.776;9.200;2023-03-08T11:49:41;10.90;99.90
9486;DHT22;4781;48.776;9.200;2023-03-08T11:52:29;11.00;99.90
9486;DHT22;4781;48.776;9.200;2023-03-08T12:01:13;11.10;99.90
9486;DHT22;4781;48.776;9.200;2023-03-08T12:03:41;11.20;99.90
9486;DHT22;4781;48.776;9.200;2023-03-08T12:06:28;11.30;99.90
9486;DHT22;4781;48.776;9.200;2023-03-08T12:09:00;11.30;99.90
9486;DHT22;4781;48.776;9.200;2023-03-08T12:11:40;11.30;99.90
9486;DHT22;4781;48.776;9.200;2023-03-08T12:14:24;11.40;99.90
9486;DHT22;4781;48.776;9.200;2023-03-08T12:17:12;11.40;99.90
9486;DHT22;4781;48.776;9.200;2023-03-08T12:19:46;11.40;99.90
9486;DHT22;4781;48.776;9.200;2023-03-08T12:31:23;11.60;99.90
9486;DHT22;4781;48.776;9.200;2023-03-08T12:33:57;11.70;99.90
9486;DHT22;4781;48.776;9.200;2023-03-08T12:36:37;11.70;99.90
9486;DHT22;4781;48.776;9.200;2023-03-08T12:39:31;11.70;99.90
9486;DHT22;4781;48.776;9.200;2023-03-08T12:41:57;11.70;99.90
9486;DHT22;4781;48.776;9.200;2023-03-08T12:44:31;11.70;99.90
9486;DHT22;4781;48.776;9.200;2023-03-08T12:49:48;11.70;99.90
9486;DHT22;4781;48.776;9.200;2023-03-08T12:52:36;11.80;99.90
9486;DHT22;4781;48.776;9.200;2023-03-08T12:57:54;12.00;99.90
9486;DHT22;4781;48.776;9.200;2023-03-08T13:03:04;12.30;99.90
9486;DHT22;4781;48.776;9.200;2023-03-08T13:05:36;12.30;99.90
9486;DHT22;4781;48.776;9.200;2023-03-08T13:16:34;12.20;99.90
9486;DHT22;4781;48.776;9.200;2023-03-08T13:27:20;12.30;99.90
9486;DHT22;4781;48.776;9.200;2023-03-08T13:30:06;12.50;99.90
9486;DHT22;4781;48.776;9.200;2023-03-08T13:32:25;12.60;99.90
9486;DHT22;4781;48.776;9.200;2023-03-08T13:35:00;12.60;99.90
9486;DHT22;4781;48.776;9.200;2023-03-08T13:37:30;12.60;99.90
9486;DHT22;4781;48.776;9.200;2023-03-08T13:39:59;12.60;99.90
9486;DHT22;4781;48.776;9.200;2023-03-08T13:42:28;12.70;99.90
9486;DHT22;4781;48.776;9.200;2023-03-08T13:45:15;12.70;99.90
9486;DHT22;4781;48.776;9.200;2023-03-08T13:47:38;12.70;99.90
9486;DHT22;4781;48.776;9.200;2023-03-08T13:50:07;12.80;99.90
9486;DHT22;4781;48.776;9.200;2023-03-08T13:52:39;12.90;99.90
9486;DHT22;4781;48.776;9.200;2023-03-08T13:55:11;13.10;99.90
9486;DHT22;4781;48.776;9.200;2023-03-08T13:57:47;13.00;99.90
9486;DHT22;4781;48.776;9.200;2023-03-08T14:03:00;12.90;99.90
9486;DHT22;4781;48.776;9.200;2023-03-08T14:05:39;12.90;99.90
9486;DHT22;4781;48.776;9.200;2023-03-08T14:08:21;13.20;99.90
9486;DHT22;4781;48.776;9.200;2023-03-08T14:10:53;13.30;99.90
9486;DHT22;4781;48.776;9.200;2023-03-08T14:13:34;13.50;99.90
9486;DHT22;4781;48.776;9.200;2023-03-08T14:16:05;13.50;99.90
9486;DHT22;4781;48.776;9.200;2023-03-08T14:18:39;13.60;99.90
9486;DHT22;4781;48.776;9.200;2023-03-08T14:23:52;13.60;99.90
9486;DHT22;4781;48.776;9.200;2023-03-08T14:26:28;13.60;99.90
9486;DHT22;4781;48.776;9.200;2023-03-08T14:29:20;13.30;99.90
9486;DHT22;4781;48.776;9.200;2023-03-08T14:32:05;13.30;99.90
9486;DHT22;4781;48.776;9.200;2023-03-08T14:34:42;13.30;99.90
9486;DHT22;4781;48.776;9.200;2023-03-08T14:37:16;13.30;99.90
9486;DHT22;4781;48.776;9.200;2023-03-08T14:39:48;13.20;99.90
9486;DHT22;4781;48.776;9.200;2023-03-08T14:42:23;13.30;99.90
9486;DHT22;4781;48.776;9.200;2023-03-08T14:45:23;13.20;99.90
9486;DHT22;4781;48.776;9.200;2023-03-08T14:47:58;13.20;99.90
9486;DHT22;4781;48.776;9.200;2023-03-08T14:50:31;13.20;99.90
9486;DHT22;4781;48.776;9.200;2023-03-08T14:53:01;13.20;99.90
9486;DHT22;4781;48.776;9.200;2023-03-08T14:55:33;13.10;99.90
9486;DHT22;4781;48.776;9.200;2023-03-08T14:58:09;13.10;99.90
9486;DHT22;4781;48.776;9.200;2023-03-08T15:00:49;13.10;99.90
9486;DHT22;4781;48.776;9.200;2023-03-08T15:03:18;13.00;99.90
9486;DHT22;4781;48.776;9.200;2023-03-08T15:05:46;12.90;99.90
9486;DHT22;4781;48.776;9.200;2023-03-08T15:08:16;12.90;99.90
9486;DHT22;4781;48.776;9.200;2023-03-08T15:10:44;12.80;99.90
9486;DHT22;4781;48.776;9.200;2023-03-08T15:13:15;12.80;99.90
9486;DHT22;4781;48.776;9.200;2023-03-08T15:15:45;12.80;99.90
9486;DHT22;4781;48.776;9.200;2023-03-08T15:18:15;12.80;99.90
9486;DHT22;4781;48.776;9.200;2023-03-08T15:20:45;12.90;99.90
9486;DHT22;4781;48.776;9.200;2023-03-08T15:23:23;12.90;99.90
9486;DHT22;4781;48.776;9.200;2023-03-08T15:25:54;13.00;99.90
9486;DHT22;4781;48.776;9.200;2023-03-08T15:28:23;13.00;99.90
9486;DHT22;4781;48.776;9.200;2023-03-08T15:30:52;13.00;99.90
9486;DHT22;4781;48.776;9.200;2023-03-08T15:33:21;12.90;99.90
9486;DHT22;4781;48.776;9.200;2023-03-08T15:35:50;12.90;99.90
9486;DHT22;4781;48.776;9.200;2023-03-08T15:38:19;12.90;99.90
9486;DHT22;4781;48.776;9.200;2023-03-08T15:40:49;12.80;99.90
9486;DHT22;4781;48.776;9.200;2023-03-08T15:43:18;12.70;99.90
9486;DHT22;4781;48.776;9.200;2023-03-08T15:45:46;12.70;99.90
9486;DHT22;4781;48.776;9.200;2023-03-08T15:48:16;12.70;99.90
9486;DHT22;4781;48.776;9.200;2023-03-08T15:50:45;12.70;99.90
9486;DHT22;4781;48.776;9.200;2023-03-08T15:53:15;12.70;99.90
9486;DHT22;4781;48.776;9.200;2023-03-08T15:55:43;12.60;99.90
9486;DHT22;4781;48.776;9.200;2023-03-08T15:58:11;12.60;99.90
9486;DHT22;4781;48.776;9.200;2023-03-08T16:00:40;12.60;99.90
9486;DHT22;4781;48.776;9.200;2023-03-08T16:03:11;12.60;99.90
9486;DHT22;4781;48.776;9.200;2023-03-08T16:05:40;12.50;99.90
9486;DHT22;4781;48.776;9.200;2023-03-08T16:08:08;12.50;99.90
9486;DHT22;4781;48.776;9.200;2023-03-08T16:10:39;12.50;99.90
9486;DHT22;4781;48.776;9.200;2023-03-08T16:13:09;12.50;99.90
9486;DHT22;4781;48.776;9.200;2023-03-08T16:15:41;12.50;99.90
9486;DHT22;4781;48.776;9.200;2023-03-08T16:18:09;12.50;99.90
9486;DHT22;4781;48.776;9.200;2023-03-08T16:20:41;12.50;99.90
9486;DHT22;4781;48.776;9.200;2023-03-08T16:23:11;12.50;99.90
9486;DHT22;4781;48.776;9.200;2023-03-08T16:25:40;12.50;99.90
9486;DHT22;4781;48.776;9.200;2023-03-08T16:28:09;12.40;99.90
9486;DHT22;4781;48.776;9.200;2023-03-08T16:30:38;12.40;99.90
9486;DHT22;4781;48.776;9.200;2023-03-08T16:33:08;12.30;99.90
9486;DHT22;4781;48.776;9.200;2023-03-08T16:35:36;12.20;99.90
9486;DHT22;4781;48.776;9.200;2023-03-08T16:38:04;12.20;99.90
9486;DHT22;4781;48.776;9.200;2023-03-08T16:40:33;12.20;99.90
9486;DHT22;4781;48.776;9.200;2023-03-08T16:43:03;12.20;99.90
9486;DHT22;4781;48.776;9.200;2023-03-08T16:45:31;12.20;99.90
9486;DHT22;4781;48.776;9.200;2023-03-08T16:48:00;12.20;99.90
9486;DHT22;4781;48.776;9.200;2023-03-08T16:50:28;12.00;99.90
9486;DHT22;4781;48.776;9.200;2023-03-08T16:52:57;11.80;99.90
9486;DHT22;4781;48.776;9.200;2023-03-08T16:55:26;11.70;99.90
9486;DHT22;4781;48.776;9.200;2023-03-08T16:57:54;11.60;99.90
9486;DHT22;4781;48.776;9.200;2023-03-08T17:00:23;11.60;99.90
9486;DHT22;4781;48.776;9.200;2023-03-08T17:02:52;11.50;99.90
9486;DHT22;4781;48.776;9.200;2023-03-08T17:05:21;11.40;99.90
9486;DHT22;4781;48.776;9.200;2023-03-08T17:07:49;11.40;99.90
9486;DHT22;4781;48.776;9.200;2023-03-08T17:10:18;11.30;99.90
9486;DHT22;4781;48.776;9.200;2023-03-08T17:12:47;11.30;99.90
9486;DHT22;4781;48.776;9.200;2023-03-08T17:15:15;11.30;99.90
9486;DHT22;4781;48.776;9.200;2023-03-08T17:17:43;11.30;99.90
9486;DHT22;4781;48.776;9.200;2023-03-08T17:20:12;11.30;99.90
9486;DHT22;4781;48.776;9.200;2023-03-08T17:22:40;11.30;99.90
9486;DHT22;4781;48.776;9.200;2023-03-08T17:25:09;11.30;99.90
9486;DHT22;4781;48.776;9.200;2023-03-08T17:27:37;11.30;99.90
9486;DHT22;4781;48.776;9.200;2023-03-08T17:30:06;11.40;99.90
9486;DHT22;4781;48.776;9.200;2023-03-08T17:32:37;11.40;99.90
9486;DHT22;4781;48.776;9.200;2023-03-08T17:35:06;11.40;99.90
9486;DHT22;4781;48.776;9.200;2023-03-08T17:37:35;11.40;99.90
9486;DHT22;4781;48.776;9.200;2023-03-08T17:40:12;11.30;99.90
9486;DHT22;4781;48.776;9.200;2023-03-08T17:42:36;11.30;99.90
9486;DHT22;4781;48.776;9.200;2023-03-08T17:45:06;11.30;99.90
9486;DHT22;4781;48.776;9.200;2023-03-08T17:47:35;11.30;99.90
9486;DHT22;4781;48.776;9.200;2023-03-08T17:50:06;11.30;99.90
9486;DHT22;4781;48.776;9.200;2023-03-08T17:52:35;11.30;99.90
9486;DHT22;4781;48.776;9.200;2023-03-08T17:55:04;11.30;99.90
9486;DHT22;4781;48.776;9.200;2023-03-08T17:57:34;11.20;99.90